Time;durP1;ratioP1;P1;durP2;ratioP2;P2;SDS_P1;SDS_P2;PMS_P1;PMS_P2;Temp;Humidity;BMP_temperature;BMP_pressure;BME280_temperature;BME280_humidity;BME280_pressure;Samples;Min_cycle;Max_cycle;Signal;HPM_P1;HPM_P2
2023/03/28 00:00:23;;;;;;;4.22;2.33;;;;;;;;;;5010666;28;20060;-77
2023/03/28 00:02:49;;;;;;;3.00;2.35;;;;;;;;;;5010509;28;20042;-77
2023/03/28 00:05:16;;;;;;;3.20;2.05;;;;;;;;;;5013783;28;20058;-78
2023/03/28 00:07:42;;;;;;;6.55;2.20;;;;;;;;;;5011029;28;20050;-77
2023/03/28 00:10:09;;;;;;;5.72;2.83;;;;;;;;;;5008016;28;20517;-78
2023/03/28 00:12:35;;;;;;;3.92;2.08;;;;;;;;;;5012576;28;20053;-78
2023/03/28 00:15:03;;;;;;;5.30;2.20;;;;;;;;;;5005432;28;20038;-77
2023/03/28 00:17:30;;;;;;;6.38;2.33;;;;;;;;;;5015437;28;20484;-78
2023/03/28 00:19:56;;;;;;;3.78;2.20;;;;;;;;;;5016193;28;20032;-77
2023/03/28 00:22:22;;;;;;;3.88;1.95;;;;;;;;;;5019907;28;20029;-77
2023/03/28 00:24:50;;;;;;;5.13;2.20;;;;;;;;;;5010838;28;20030;-77
2023/03/28 00:27:16;;;;;;;3.83;2.60;;;;;;;;;;5013895;28;20034;-77
2023/03/28 00:29:43;;;;;;;5.32;2.35;;;;;;;;;;5012040;28;20517;-77
2023/03/28 00:32:09;;;;;;;5.30;2.20;;;;;;;;;;5007522;28;20022;-78
2023/03/28 00:34:35;;;;;;;6.88;2.50;;;;;;;;;;5007704;28;20032;-77
2023/03/28 00:37:02;;;;;;;5.45;2.20;;;;;;;;;;4998340;28;20030;-78
2023/03/28 00:39:30;;;;;;;4.50;2.33;;;;;;;;;;5006043;28;20034;-78
2023/03/28 00:41:56;;;;;;;2.65;2.10;;;;;;;;;;5007484;28;20120;-79
2023/03/28 00:44:42;;;;;;;7.47;2.00;;;;;;;;;;5009654;28;20077;-79
2023/03/28 00:47:14;;;;;;;6.85;2.40;;;;;;;;;;5011242;28;20026;-79
2023/03/28 00:49:40;;;;;;;5.45;2.72;;;;;;;;;;5010717;28;20048;-79
2023/03/28 00:52:07;;;;;;;5.47;2.15;;;;;;;;;;5014659;28;20061;-79
2023/03/28 00:54:38;;;;;;;6.50;2.40;;;;;;;;;;5000135;28;20126;-80
2023/03/28 00:57:05;;;;;;;10.30;2.30;;;;;;;;;;5008951;28;20382;-80
2023/03/28 00:59:34;;;;;;;8.98;3.20;;;;;;;;;;5008002;28;20026;-79
2023/03/28 01:02:00;;;;;;;4.25;2.40;;;;;;;;;;5028720;28;20851;-79
2023/03/28 01:04:32;;;;;;;7.40;2.67;;;;;;;;;;5020322;28;20102;-79
2023/03/28 01:06:58;;;;;;;11.40;2.50;;;;;;;;;;5009700;28;20452;-79
2023/03/28 01:09:27;;;;;;;5.22;2.13;;;;;;;;;;5000528;28;20408;-78
2023/03/28 01:11:54;;;;;;;4.20;2.10;;;;;;;;;;5006868;28;20023;-78
2023/03/28 01:14:22;;;;;;;8.40;2.60;;;;;;;;;;5010056;28;20045;-79
2023/03/28 01:16:48;;;;;;;9.98;2.20;;;;;;;;;;5007018;28;20018;-79
2023/03/28 01:19:25;;;;;;;8.25;3.05;;;;;;;;;;5018352;28;20018;-79
2023/03/28 01:21:59;;;;;;;10.02;2.60;;;;;;;;;;5009314;28;20034;-81
2023/03/28 01:24:25;;;;;;;3.20;2.15;;;;;;;;;;5008972;28;20061;-79
2023/03/28 01:27:10;;;;;;;4.10;2.08;;;;;;;;;;5013671;28;20026;-77
2023/03/28 01:29:36;;;;;;;5.23;1.70;;;;;;;;;;5003138;28;20034;-79
2023/03/28 01:32:21;;;;;;;4.53;1.80;;;;;;;;;;5018647;28;20029;-79
2023/03/28 01:35:06;;;;;;;5.53;1.83;;;;;;;;;;5012758;28;20061;-79
2023/03/28 01:37:38;;;;;;;6.05;2.25;;;;;;;;;;5010546;28;20030;-80
2023/03/28 01:40:07;;;;;;;5.30;3.00;;;;;;;;;;5013066;28;20025;-80
2023/03/28 01:42:48;;;;;;;4.10;1.70;;;;;;;;;;5014101;28;20037;-79
2023/03/28 01:45:18;;;;;;;5.57;2.10;;;;;;;;;;5018979;28;20022;-80
2023/03/28 01:48:04;;;;;;;5.22;2.00;;;;;;;;;;5015409;28;20033;-79
2023/03/28 01:50:38;;;;;;;4.57;2.00;;;;;;;;;;4995702;28;20046;-80
2023/03/28 01:53:13;;;;;;;5.85;2.10;;;;;;;;;;5030096;28;20052;-82
2023/03/28 01:55:52;;;;;;;5.32;2.28;;;;;;;;;;5016085;28;20053;-80
2023/03/28 01:58:23;;;;;;;5.72;2.20;;;;;;;;;;5009499;28;20061;-78
2023/03/28 02:00:53;;;;;;;6.38;2.15;;;;;;;;;;5008411;28;20455;-79
2023/03/28 02:03:19;;;;;;;3.88;2.40;;;;;;;;;;5008847;28;20044;-79
2023/03/28 02:05:47;;;;;;;5.93;2.28;;;;;;;;;;5013872;28;20463;-79
2023/03/28 02:08:15;;;;;;;4.53;1.88;;;;;;;;;;5010404;28;20146;-81
2023/03/28 02:10:43;;;;;;;3.97;1.92;;;;;;;;;;5009211;28;20396;-79
2023/03/28 02:13:13;;;;;;;3.15;1.70;;;;;;;;;;5015879;28;20029;-79
2023/03/28 02:15:40;;;;;;;3.83;1.77;;;;;;;;;;5013040;28;20570;-79
2023/03/28 02:18:08;;;;;;;3.92;1.77;;;;;;;;;;5016250;28;20037;-80
2023/03/28 02:20:35;;;;;;;4.43;1.75;;;;;;;;;;5023951;28;20033;-79
2023/03/28 02:23:08;;;;;;;4.78;1.80;;;;;;;;;;5015281;28;20046;-79
2023/03/28 02:25:38;;;;;;;3.40;1.60;;;;;;;;;;5010511;28;20065;-81
2023/03/28 02:28:06;;;;;;;4.65;1.70;;;;;;;;;;5011708;28;20057;-79
2023/03/28 02:30:33;;;;;;;3.90;1.55;;;;;;;;;;5012221;28;20041;-80
2023/03/28 02:33:04;;;;;;;1.60;1.50;;;;;;;;;;5012132;28;20477;-80
2023/03/28 02:35:46;;;;;;;3.20;1.48;;;;;;;;;;5018261;28;20086;-81
2023/03/28 02:38:27;;;;;;;2.05;1.83;;;;;;;;;;5029551;28;20029;-80
2023/03/28 02:41:08;;;;;;;3.65;1.60;;;;;;;;;;5008523;28;20027;-79
2023/03/28 02:43:54;;;;;;;1.73;1.60;;;;;;;;;;5017289;28;20029;-79
2023/03/28 02:46:31;;;;;;;1.75;1.42;;;;;;;;;;5008189;28;20018;-81
2023/03/28 02:49:15;;;;;;;1.85;1.75;;;;;;;;;;5005854;28;20395;-82
2023/03/28 02:51:41;;;;;;;2.60;1.70;;;;;;;;;;5016813;28;20037;-80
2023/03/28 02:54:18;;;;;;;2.58;1.70;;;;;;;;;;5009836;28;20022;-79
2023/03/28 02:56:44;;;;;;;1.70;1.60;;;;;;;;;;5018528;28;20049;-79
2023/03/28 02:59:27;;;;;;;1.92;1.58;;;;;;;;;;5009152;28;20483;-79
2023/03/28 03:01:53;;;;;;;2.63;1.75;;;;;;;;;;5027983;28;20029;-79
2023/03/28 03:04:19;;;;;;;2.53;1.42;;;;;;;;;;5018147;28;20145;-80
2023/03/28 03:06:47;;;;;;;3.70;1.60;;;;;;;;;;5006286;28;20029;-78
2023/03/28 03:09:13;;;;;;;3.15;1.80;;;;;;;;;;4999418;28;20531;-79
2023/03/28 03:11:39;;;;;;;5.53;2.08;;;;;;;;;;5016921;28;20033;-80
2023/03/28 03:14:05;;;;;;;3.63;1.73;;;;;;;;;;5015979;28;20058;-80
2023/03/28 03:16:32;;;;;;;2.83;1.75;;;;;;;;;;5014746;28;20376;-80
2023/03/28 03:18:58;;;;;;;3.10;1.90;;;;;;;;;;5022054;28;20040;-80
2023/03/28 03:21:24;;;;;;;3.28;2.45;;;;;;;;;;5008701;28;20021;-79
2023/03/28 03:23:51;;;;;;;6.70;2.00;;;;;;;;;;5015356;28;20500;-80
2023/03/28 03:26:17;;;;;;;6.35;1.85;;;;;;;;;;5006769;28;20061;-79
2023/03/28 03:28:44;;;;;;;5.43;2.15;;;;;;;;;;5005331;28;20056;-80
2023/03/28 03:31:10;;;;;;;4.45;1.88;;;;;;;;;;5010333;28;20025;-77
2023/03/28 03:33:36;;;;;;;2.10;1.90;;;;;;;;;;5004151;28;20377;-79
2023/03/28 03:36:03;;;;;;;5.22;2.75;;;;;;;;;;5008463;28;20144;-77
2023/03/28 03:38:30;;;;;;;6.68;2.78;;;;;;;;;;5011575;28;20033;-80
2023/03/28 03:40:56;;;;;;;2.67;1.73;;;;;;;;;;5006751;28;20053;-79
2023/03/28 03:43:22;;;;;;;3.40;2.00;;;;;;;;;;5012210;28;20113;-79
2023/03/28 03:45:48;;;;;;;2.67;2.28;;;;;;;;;;5006123;28;20034;-81
2023/03/28 03:48:14;;;;;;;2.05;1.83;;;;;;;;;;5009661;28;20155;-80
2023/03/28 03:50:41;;;;;;;5.75;2.30;;;;;;;;;;5016216;28;20026;-79
2023/03/28 03:53:07;;;;;;;4.32;2.60;;;;;;;;;;5018445;28;20026;-79
2023/03/28 03:55:33;;;;;;;5.60;2.30;;;;;;;;;;5013864;28;20030;-79
2023/03/28 03:58:01;;;;;;;5.15;2.10;;;;;;;;;;5003092;28;20109;-80
2023/03/28 04:00:28;;;;;;;10.73;2.55;;;;;;;;;;5017341;28;20022;-79
2023/03/28 04:02:54;;;;;;;3.38;2.15;;;;;;;;;;5019466;28;20054;-80
2023/03/28 04:05:20;;;;;;;3.88;2.40;;;;;;;;;;5004232;28;20031;-79
2023/03/28 04:07:46;;;;;;;4.82;2.60;;;;;;;;;;5021068;28;20068;-79
2023/03/28 04:10:12;;;;;;;3.55;2.08;;;;;;;;;;5012031;28;20022;-80
2023/03/28 04:12:38;;;;;;;6.43;2.72;;;;;;;;;;5012150;28;20061;-79
2023/03/28 04:15:05;;;;;;;3.58;2.60;;;;;;;;;;5013059;28;20073;-81
2023/03/28 04:17:33;;;;;;;6.22;2.50;;;;;;;;;;5017735;28;20030;-80
2023/03/28 04:20:01;;;;;;;4.18;2.30;;;;;;;;;;5016552;28;20032;-81
2023/03/28 04:22:28;;;;;;;3.30;1.75;;;;;;;;;;5015974;28;20014;-80
2023/03/28 04:24:55;;;;;;;6.95;3.22;;;;;;;;;;5011217;28;20014;-79
2023/03/28 04:27:30;;;;;;;4.20;2.55;;;;;;;;;;5018609;28;20090;-79
2023/03/28 04:29:56;;;;;;;8.10;2.50;;;;;;;;;;5004639;28;20022;-78
2023/03/28 04:32:23;;;;;;;4.82;2.67;;;;;;;;;;5018603;28;20030;-81
2023/03/28 04:34:50;;;;;;;5.15;2.47;;;;;;;;;;5012966;28;20053;-80
2023/03/28 04:37:16;;;;;;;4.07;2.22;;;;;;;;;;5013051;28;20143;-80
2023/03/28 04:39:46;;;;;;;3.75;2.40;;;;;;;;;;5007228;28;20015;-80
2023/03/28 04:42:13;;;;;;;4.68;2.47;;;;;;;;;;5012977;28;20038;-81
2023/03/28 04:44:39;;;;;;;2.92;2.13;;;;;;;;;;5019841;28;20025;-80
2023/03/28 04:47:11;;;;;;;2.20;1.92;;;;;;;;;;5016416;28;20022;-79
2023/03/28 04:49:38;;;;;;;4.20;1.98;;;;;;;;;;5017552;28;20104;-79
2023/03/28 04:52:05;;;;;;;4.97;2.60;;;;;;;;;;5018862;28;20562;-81
2023/03/28 04:54:31;;;;;;;3.45;1.95;;;;;;;;;;5008924;28;20045;-81
2023/03/28 04:56:57;;;;;;;4.57;2.33;;;;;;;;;;5020991;28;20026;-79
2023/03/28 04:59:23;;;;;;;4.15;2.15;;;;;;;;;;5021220;28;20518;-80
2023/03/28 05:01:53;;;;;;;4.63;2.22;;;;;;;;;;5034553;28;20440;-79
2023/03/28 05:04:22;;;;;;;4.72;2.42;;;;;;;;;;5012754;28;20080;-82
2023/03/28 05:06:49;;;;;;;6.38;2.58;;;;;;;;;;5015949;28;20068;-79
2023/03/28 05:09:16;;;;;;;2.90;2.47;;;;;;;;;;5018531;28;20053;-79
2023/03/28 05:11:43;;;;;;;3.17;2.58;;;;;;;;;;5011915;28;20117;-79
2023/03/28 05:14:09;;;;;;;3.60;1.92;;;;;;;;;;5014557;28;20026;-79
2023/03/28 05:16:35;;;;;;;3.28;2.20;;;;;;;;;;5031254;28;20042;-80
2023/03/28 05:19:02;;;;;;;6.57;2.33;;;;;;;;;;5009793;28;20054;-80
2023/03/28 05:21:28;;;;;;;5.43;3.65;;;;;;;;;;5019786;28;20030;-80
2023/03/28 05:23:54;;;;;;;2.92;1.88;;;;;;;;;;5026174;28;20526;-78
2023/03/28 05:26:20;;;;;;;2.30;1.95;;;;;;;;;;5017290;28;20033;-80
2023/03/28 05:28:47;;;;;;;3.72;2.40;;;;;;;;;;5016834;28;20025;-80
2023/03/28 05:31:15;;;;;;;7.55;2.67;;;;;;;;;;5024776;28;20435;-80
2023/03/28 05:33:42;;;;;;;2.42;2.22;;;;;;;;;;5006636;28;20034;-80
2023/03/28 05:36:09;;;;;;;4.75;2.65;;;;;;;;;;5016577;28;20030;-80
2023/03/28 05:38:35;;;;;;;2.60;2.08;;;;;;;;;;5022587;28;20025;-80
2023/03/28 05:41:01;;;;;;;4.45;2.83;;;;;;;;;;5018225;28;20057;-79
2023/03/28 05:43:27;;;;;;;2.75;2.50;;;;;;;;;;5017562;28;20037;-79
2023/03/28 05:45:54;;;;;;;6.18;3.13;;;;;;;;;;5020278;28;20017;-79
2023/03/28 05:48:20;;;;;;;3.72;2.15;;;;;;;;;;5016371;28;20037;-80
2023/03/28 05:50:47;;;;;;;6.43;2.72;;;;;;;;;;5024884;28;20057;-81
2023/03/28 05:53:13;;;;;;;6.75;2.22;;;;;;;;;;5019819;28;20038;-81
2023/03/28 05:55:40;;;;;;;4.30;2.30;;;;;;;;;;5023815;28;20038;-80
2023/03/28 05:58:06;;;;;;;5.22;2.60;;;;;;;;;;5015757;28;20033;-79
2023/03/28 06:00:33;;;;;;;5.38;2.30;;;;;;;;;;5016993;28;20014;-79
2023/03/28 06:03:00;;;;;;;3.67;2.22;;;;;;;;;;5010775;28;20141;-79
2023/03/28 06:05:31;;;;;;;5.43;2.38;;;;;;;;;;5012770;28;20030;-81
2023/03/28 06:07:57;;;;;;;7.63;2.58;;;;;;;;;;5025775;28;20154;-78
2023/03/28 06:10:24;;;;;;;6.80;2.20;;;;;;;;;;5016080;28;20058;-80
2023/03/28 06:12:50;;;;;;;3.17;2.10;;;;;;;;;;5013908;28;20045;-82
2023/03/28 06:15:16;;;;;;;3.35;2.30;;;;;;;;;;5034625;28;20022;-80
2023/03/28 06:17:43;;;;;;;2.38;2.17;;;;;;;;;;5027001;28;20128;-80
2023/03/28 06:20:09;;;;;;;4.43;2.00;;;;;;;;;;5013841;28;20026;-79
2023/03/28 06:22:36;;;;;;;5.07;2.00;;;;;;;;;;5014496;28;20496;-79
2023/03/28 06:25:03;;;;;;;8.55;2.10;;;;;;;;;;5035990;28;20019;-79
2023/03/28 06:27:29;;;;;;;4.93;1.80;;;;;;;;;;5018231;28;20030;-81
2023/03/28 06:29:55;;;;;;;3.20;2.90;;;;;;;;;;5022739;28;20014;-79
2023/03/28 06:32:21;;;;;;;3.78;1.80;;;;;;;;;;5019759;28;20026;-79
2023/03/28 06:34:47;;;;;;;10.35;2.30;;;;;;;;;;5023654;28;20030;-77
2023/03/28 06:37:13;;;;;;;2.85;1.90;;;;;;;;;;5014788;28;20077;-79
2023/03/28 06:39:40;;;;;;;3.47;2.55;;;;;;;;;;5022220;28;20029;-80
2023/03/28 06:42:06;;;;;;;4.53;2.00;;;;;;;;;;5018770;28;20019;-79
2023/03/28 06:44:32;;;;;;;7.25;2.33;;;;;;;;;;5018570;28;20029;-79
2023/03/28 06:46:58;;;;;;;2.92;2.22;;;;;;;;;;5013461;28;20025;-80
2023/03/28 06:49:24;;;;;;;2.17;1.90;;;;;;;;;;5023256;28;20014;-79
2023/03/28 06:51:56;;;;;;;7.03;2.67;;;;;;;;;;5028784;28;20092;-79
2023/03/28 06:54:22;;;;;;;6.32;2.30;;;;;;;;;;5021436;28;20921;-79
2023/03/28 06:56:48;;;;;;;6.88;2.60;;;;;;;;;;5032703;28;20373;-79
2023/03/28 06:59:14;;;;;;;6.40;3.40;;;;;;;;;;5022934;28;20026;-80
2023/03/28 07:01:40;;;;;;;5.82;3.05;;;;;;;;;;5027109;28;20030;-81
2023/03/28 07:04:06;;;;;;;6.22;2.38;;;;;;;;;;5023631;28;20046;-79
2023/03/28 07:06:32;;;;;;;5.00;2.92;;;;;;;;;;5012341;28;20053;-80
2023/03/28 07:08:59;;;;;;;2.83;1.98;;;;;;;;;;5019489;28;20056;-78
2023/03/28 07:11:26;;;;;;;6.97;2.28;;;;;;;;;;5018639;28;20094;-76
2023/03/28 07:13:52;;;;;;;5.50;2.65;;;;;;;;;;5021145;28;20037;-77
2023/03/28 07:16:18;;;;;;;4.60;2.72;;;;;;;;;;5020408;28;20030;-79
2023/03/28 07:18:44;;;;;;;4.32;2.40;;;;;;;;;;5013576;28;20026;-80
2023/03/28 07:21:12;;;;;;;6.15;3.45;;;;;;;;;;5026050;28;20025;-80
2023/03/28 07:23:39;;;;;;;6.25;2.63;;;;;;;;;;5015117;28;20033;-81
2023/03/28 07:26:06;;;;;;;4.93;2.33;;;;;;;;;;5018097;28;20026;-79
2023/03/28 07:28:32;;;;;;;5.80;2.65;;;;;;;;;;5019921;28;20089;-79
2023/03/28 07:31:01;;;;;;;3.35;2.25;;;;;;;;;;5023427;28;20026;-79
2023/03/28 07:33:27;;;;;;;4.47;2.53;;;;;;;;;;5020190;28;20037;-79
2023/03/28 07:35:54;;;;;;;5.60;2.38;;;;;;;;;;5013986;28;20056;-80
2023/03/28 07:38:20;;;;;;;4.93;2.65;;;;;;;;;;5020585;28;20023;-79
2023/03/28 07:40:47;;;;;;;4.28;2.67;;;;;;;;;;5015455;28;20037;-80
2023/03/28 07:43:13;;;;;;;5.72;2.60;;;;;;;;;;5023335;28;20037;-80
2023/03/28 07:45:39;;;;;;;4.32;2.10;;;;;;;;;;5015827;28;20038;-79
2023/03/28 07:48:05;;;;;;;5.15;2.25;;;;;;;;;;5015021;28;20042;-81
2023/03/28 07:50:31;;;;;;;3.55;2.10;;;;;;;;;;5022686;28;20038;-81
2023/03/28 07:52:58;;;;;;;5.13;2.22;;;;;;;;;;5024948;28;20045;-80
2023/03/28 07:55:25;;;;;;;4.63;2.03;;;;;;;;;;5017731;28;20018;-80
2023/03/28 07:57:51;;;;;;;3.88;2.03;;;;;;;;;;5011939;28;20035;-79
2023/03/28 08:00:18;;;;;;;3.28;2.15;;;;;;;;;;5020160;28;20022;-80
2023/03/28 08:02:44;;;;;;;5.32;2.45;;;;;;;;;;5019432;28;20045;-80
2023/03/28 08:05:10;;;;;;;3.30;1.92;;;;;;;;;;5022905;28;20037;-80
2023/03/28 08:07:36;;;;;;;2.45;2.10;;;;;;;;;;5022869;28;20050;-82
2023/03/28 08:10:02;;;;;;;2.13;1.63;;;;;;;;;;5020773;28;20037;-80
2023/03/28 08:12:29;;;;;;;2.72;1.92;;;;;;;;;;5011718;28;20021;-80
2023/03/28 08:14:55;;;;;;;5.07;2.30;;;;;;;;;;5015880;28;20127;-79
2023/03/28 08:17:21;;;;;;;5.10;1.88;;;;;;;;;;5025779;28;20067;-79
2023/03/28 08:19:47;;;;;;;8.43;2.58;;;;;;;;;;5014376;28;20026;-80
2023/03/28 08:22:15;;;;;;;3.55;2.17;;;;;;;;;;5020475;28;20010;-80
2023/03/28 08:24:42;;;;;;;3.53;1.83;;;;;;;;;;5019542;28;20026;-80
2023/03/28 08:27:08;;;;;;;3.05;1.80;;;;;;;;;;5028384;28;20029;-80
2023/03/28 08:29:35;;;;;;;4.22;2.40;;;;;;;;;;5021051;28;20429;-80
2023/03/28 08:32:02;;;;;;;6.63;2.10;;;;;;;;;;5014968;28;20033;-81
2023/03/28 08:34:29;;;;;;;3.67;1.77;;;;;;;;;;5017794;28;20030;-80
2023/03/28 08:36:56;;;;;;;3.63;1.83;;;;;;;;;;5023198;28;20014;-80
2023/03/28 08:39:23;;;;;;;3.60;1.88;;;;;;;;;;5022235;28;20463;-83
2023/03/28 08:41:52;;;;;;;5.13;1.98;;;;;;;;;;5020881;28;20288;-80
2023/03/28 08:44:21;;;;;;;4.40;2.10;;;;;;;;;;5010425;28;20035;-81
2023/03/28 08:46:51;;;;;;;3.42;1.60;;;;;;;;;;5021088;28;20026;-80
2023/03/28 08:49:18;;;;;;;4.07;2.08;;;;;;;;;;5010362;28;20042;-81
2023/03/28 08:51:46;;;;;;;2.80;2.00;;;;;;;;;;5008389;28;20026;-79
2023/03/28 08:54:13;;;;;;;4.20;2.25;;;;;;;;;;5012964;28;20030;-80
2023/03/28 08:56:44;;;;;;;4.38;2.13;;;;;;;;;;5021278;28;20097;-80
2023/03/28 08:59:14;;;;;;;3.55;2.33;;;;;;;;;;5028363;28;20022;-80
2023/03/28 09:01:41;;;;;;;3.95;2.35;;;;;;;;;;5013443;28;20034;-79
2023/03/28 09:04:07;;;;;;;5.90;2.50;;;;;;;;;;5018698;28;20038;-80
2023/03/28 09:06:39;;;;;;;5.80;2.20;;;;;;;;;;5011447;28;20034;-80
2023/03/28 09:09:24;;;;;;;4.00;1.70;;;;;;;;;;5022999;28;20060;-81
2023/03/28 09:12:02;;;;;;;2.60;1.63;;;;;;;;;;5022420;28;20053;-81
2023/03/28 09:14:38;;;;;;;2.13;1.92;;;;;;;;;;5019483;28;20026;-80
2023/03/28 09:17:04;;;;;;;;;;;;;;;;;;5006195;28;20040;-80
2023/03/28 09:19:49;;;;;;;3.17;1.70;;;;;;;;;;5011599;28;19913;-80
2023/03/28 09:22:26;;;;;;;5.50;2.20;;;;;;;;;;5037891;28;20026;-79
2023/03/28 09:24:55;;;;;;;2.38;1.60;;;;;;;;;;5016016;28;20071;-80
2023/03/28 09:27:32;;;;;;;3.55;1.60;;;;;;;;;;5022699;28;20034;-80
2023/03/28 09:30:19;;;;;;;3.97;1.60;;;;;;;;;;5016935;28;20040;-81
2023/03/28 09:32:51;;;;;;;1.52;1.42;;;;;;;;;;5022215;28;20023;-80
2023/03/28 09:35:22;;;;;;;2.35;1.60;;;;;;;;;;5017590;28;20030;-78
2023/03/28 09:37:57;;;;;;;5.28;1.85;;;;;;;;;;5035306;28;20018;-79
2023/03/28 09:40:25;;;;;;;2.70;1.52;;;;;;;;;;5014473;28;20029;-80
2023/03/28 09:42:51;;;;;;;3.92;1.60;;;;;;;;;;5022605;28;20034;-80
2023/03/28 09:45:25;;;;;;;4.78;1.75;;;;;;;;;;5022775;28;20140;-79
2023/03/28 09:47:52;;;;;;;2.97;1.40;;;;;;;;;;5015870;28;20030;-79
2023/03/28 09:50:20;;;;;;;2.55;1.50;;;;;;;;;;5021400;28;20187;-80
2023/03/28 09:52:48;;;;;;;2.20;1.40;;;;;;;;;;5024268;28;20053;-81
2023/03/28 09:55:19;;;;;;;3.00;1.50;;;;;;;;;;5020903;28;20066;-79
2023/03/28 09:58:06;;;;;;;2.33;1.42;;;;;;;;;;5014913;28;20126;-80
2023/03/28 10:00:36;;;;;;;2.33;1.40;;;;;;;;;;5017372;28;20023;-78
2023/03/28 10:03:03;;;;;;;1.40;1.30;;;;;;;;;;5015235;28;20061;-78
2023/03/28 10:05:34;;;;;;;1.50;1.50;;;;;;;;;;5012973;28;20052;-79
2023/03/28 10:08:05;;;;;;;1.20;1.20;;;;;;;;;;5019494;28;20117;-78
2023/03/28 10:10:32;;;;;;;1.65;1.42;;;;;;;;;;5012930;28;20030;-79
2023/03/28 10:13:01;;;;;;;2.65;1.45;;;;;;;;;;5017130;28;20038;-78
2023/03/28 10:15:31;;;;;;;3.33;1.65;;;;;;;;;;5020822;28;20026;-79
2023/03/28 10:17:59;;;;;;;1.40;1.33;;;;;;;;;;5022423;28;20025;-79
2023/03/28 10:20:25;;;;;;;1.58;1.25;;;;;;;;;;5018343;28;20061;-79
2023/03/28 10:22:56;;;;;;;1.25;1.20;;;;;;;;;;5019022;28;20022;-80
2023/03/28 10:25:28;;;;;;;1.15;1.10;;;;;;;;;;5020634;28;20034;-80
2023/03/28 10:27:55;;;;;;;1.25;1.20;;;;;;;;;;5036185;28;20704;-79
2023/03/28 10:30:31;;;;;;;1.55;1.20;;;;;;;;;;5022378;28;20030;-79
2023/03/28 10:33:16;;;;;;;1.30;1.20;;;;;;;;;;5018047;28;20037;-79
2023/03/28 10:35:46;;;;;;;1.95;1.38;;;;;;;;;;5017428;28;20453;-79
2023/03/28 10:38:18;;;;;;;1.65;1.30;;;;;;;;;;5016417;28;20065;-78
2023/03/28 10:41:06;;;;;;;1.38;1.20;;;;;;;;;;5013522;28;20026;-80
2023/03/28 10:43:37;;;;;;;1.17;1.17;;;;;;;;;;5016107;28;20033;-80
2023/03/28 10:46:05;;;;;;;1.13;1.13;;;;;;;;;;5022074;28;20403;-81
2023/03/28 10:48:35;;;;;;;1.23;1.15;;;;;;;;;;5034541;28;20038;-79
2023/03/28 10:51:07;;;;;;;3.22;2.45;;;;;;;;;;5022622;28;20235;-79
2023/03/28 10:53:48;;;;;;;2.40;1.90;;;;;;;;;;5011799;28;20040;-78
2023/03/28 10:56:33;;;;;;;1.23;1.13;;;;;;;;;;5020095;28;20038;-79
2023/03/28 10:59:17;;;;;;;1.40;1.33;;;;;;;;;;5018265;28;20025;-79
2023/03/28 11:01:58;;;;;;;1.40;1.10;;;;;;;;;;5020599;28;20093;-79
2023/03/28 11:04:28;;;;;;;1.95;1.50;;;;;;;;;;5020255;28;20106;-79
2023/03/28 11:07:05;;;;;;;1.10;1.10;;;;;;;;;;5016365;28;20508;-79
2023/03/28 11:09:38;;;;;;;1.20;1.20;;;;;;;;;;5011313;28;20034;-78
2023/03/28 11:12:23;;;;;;;1.40;1.30;;;;;;;;;;5013002;28;20013;-79
2023/03/28 11:14:58;;;;;;;1.48;1.38;;;;;;;;;;5021826;28;20030;-77
2023/03/28 11:17:28;;;;;;;1.48;1.40;;;;;;;;;;5012145;28;20042;-78
2023/03/28 11:20:16;;;;;;;1.02;1.02;;;;;;;;;;5026275;28;20014;-78
2023/03/28 11:22:45;;;;;;;1.27;1.25;;;;;;;;;;5023200;28;20048;-78
2023/03/28 11:25:30;;;;;;;1.23;1.20;;;;;;;;;;5016993;28;20030;-78
2023/03/28 11:27:59;;;;;;;1.40;1.30;;;;;;;;;;5011290;28;20149;-81
2023/03/28 11:30:28;;;;;;;1.30;1.20;;;;;;;;;;5017987;28;20024;-78
2023/03/28 11:33:12;;;;;;;1.20;1.20;;;;;;;;;;5006445;28;20085;-79
2023/03/28 11:35:41;;;;;;;1.42;1.38;;;;;;;;;;5015165;28;20029;-79
2023/03/28 11:38:13;;;;;;;1.40;1.30;;;;;;;;;;5015717;28;20034;-78
2023/03/28 11:40:39;;;;;;;2.13;1.73;;;;;;;;;;5011948;28;20018;-80
2023/03/28 11:43:06;;;;;;;3.35;2.50;;;;;;;;;;5009873;28;20037;-79
2023/03/28 11:45:40;;;;;;;2.72;1.83;;;;;;;;;;5019790;28;20030;-78
2023/03/28 11:48:25;;;;;;;2.25;1.75;;;;;;;;;;5007551;28;20034;-79
2023/03/28 11:51:00;;;;;;;6.80;2.43;;;;;;;;;;5022938;28;20034;-80
2023/03/28 11:53:29;;;;;;;2.47;1.80;;;;;;;;;;5010745;28;20296;-81
2023/03/28 11:56:05;;;;;;;2.13;1.80;;;;;;;;;;5027527;28;20465;-78
2023/03/28 11:58:32;;;;;;;1.80;1.60;;;;;;;;;;5021640;28;20356;-77
2023/03/28 12:01:06;;;;;;;1.30;1.30;;;;;;;;;;5025401;28;20085;-77
2023/03/28 12:03:56;;;;;;;2.20;1.60;;;;;;;;;;5017336;28;20050;-78
2023/03/28 12:06:28;;;;;;;2.75;1.80;;;;;;;;;;5008696;28;20034;-77
2023/03/28 12:09:08;;;;;;;1.45;1.35;;;;;;;;;;5028969;28;20036;-77
2023/03/28 12:11:56;;;;;;;2.47;2.00;;;;;;;;;;5037599;28;20030;-80
2023/03/28 12:14:29;;;;;;;2.03;1.50;;;;;;;;;;5020639;28;20033;-77
2023/03/28 12:16:57;;;;;;;1.45;1.40;;;;;;;;;;5028621;28;20049;-78
2023/03/28 12:19:53;;;;;;;2.22;1.60;;;;;;;;;;5021961;28;20464;-81
2023/03/28 12:22:31;;;;;;;1.55;1.45;;;;;;;;;;5025993;28;20041;-79
2023/03/28 12:25:03;;;;;;;1.40;1.30;;;;;;;;;;5027223;28;20539;-79
2023/03/28 12:27:36;;;;;;;1.38;1.30;;;;;;;;;;5017253;28;20300;-79
2023/03/28 12:30:07;;;;;;;2.17;2.08;;;;;;;;;;5005783;28;20022;-77
2023/03/28 12:32:40;;;;;;;1.60;1.50;;;;;;;;;;5017907;28;20034;-77
2023/03/28 12:35:18;;;;;;;1.20;1.20;;;;;;;;;;5019809;28;20029;-77
2023/03/28 12:37:59;;;;;;;1.63;1.40;;;;;;;;;;5024712;28;20026;-79
2023/03/28 12:40:35;;;;;;;2.15;1.42;;;;;;;;;;5008639;28;20091;-77
2023/03/28 12:43:01;;;;;;;1.73;1.63;;;;;;;;;;5018494;28;20026;-79
2023/03/28 12:45:31;;;;;;;1.70;1.60;;;;;;;;;;5011314;28;20034;-78
2023/03/28 12:48:06;;;;;;;2.17;1.50;;;;;;;;;;5017270;28;20120;-79
2023/03/28 12:50:40;;;;;;;1.92;1.33;;;;;;;;;;5020997;28;20033;-79
2023/03/28 12:53:07;;;;;;;6.00;1.65;;;;;;;;;;5012274;28;20078;-80
2023/03/28 12:55:33;;;;;;;1.65;1.42;;;;;;;;;;5014824;28;20022;-78
2023/03/28 12:58:17;;;;;;;1.45;1.33;;;;;;;;;;5024791;28;20033;-79
2023/03/28 13:00:53;;;;;;;3.20;1.58;;;;;;;;;;5021603;28;20034;-78
2023/03/28 13:03:42;;;;;;;1.60;1.50;;;;;;;;;;5022243;28;20066;-77
2023/03/28 13:06:28;;;;;;;1.92;1.48;;;;;;;;;;5010506;28;20114;-80
2023/03/28 13:08:54;;;;;;;1.40;1.30;;;;;;;;;;5025380;28;20022;-79
2023/03/28 13:11:24;;;;;;;3.47;1.52;;;;;;;;;;5013656;28;20676;-78
2023/03/28 13:14:02;;;;;;;3.53;2.25;;;;;;;;;;5032534;28;20031;-78
2023/03/28 13:16:41;;;;;;;4.43;2.40;;;;;;;;;;5010048;28;20033;-77
2023/03/28 13:19:09;;;;;;;3.03;2.40;;;;;;;;;;5020567;28;20376;-81
2023/03/28 13:21:43;;;;;;;2.83;2.22;;;;;;;;;;5023574;28;20026;-78
2023/03/28 13:24:27;;;;;;;1.92;1.52;;;;;;;;;;5014675;28;20017;-78
2023/03/28 13:27:01;;;;;;;2.22;1.60;;;;;;;;;;5011048;28;20065;-78
2023/03/28 13:29:43;;;;;;;2.65;1.60;;;;;;;;;;5023769;28;20054;-78
2023/03/28 13:32:12;;;;;;;2.30;1.50;;;;;;;;;;5015375;28;20041;-78
2023/03/28 13:34:39;;;;;;;1.60;1.50;;;;;;;;;;5015497;28;20041;-79
2023/03/28 13:37:31;;;;;;;6.13;2.65;;;;;;;;;;5018070;28;20136;-79
2023/03/28 13:39:59;;;;;;;4.20;2.08;;;;;;;;;;5003223;28;20030;-81
2023/03/28 13:42:26;;;;;;;3.40;1.60;;;;;;;;;;5019632;28;20033;-80
2023/03/28 13:44:55;;;;;;;2.80;1.60;;;;;;;;;;5018705;28;20023;-83
2023/03/28 13:47:27;;;;;;;3.20;1.55;;;;;;;;;;5027455;28;20186;-79
2023/03/28 13:50:13;;;;;;;3.22;2.30;;;;;;;;;;5016351;28;20087;-78
2023/03/28 13:52:40;;;;;;;2.33;1.90;;;;;;;;;;5002931;28;20067;-80
2023/03/28 13:55:15;;;;;;;4.97;2.10;;;;;;;;;;5004306;28;20033;-82
2023/03/28 13:57:42;;;;;;;6.03;3.13;;;;;;;;;;5006165;28;20120;-78
2023/03/28 14:00:15;;;;;;;3.53;1.80;;;;;;;;;;5018938;28;20014;-79
2023/03/28 14:02:42;;;;;;;2.35;1.40;;;;;;;;;;5018964;28;20038;-78
2023/03/28 14:05:28;;;;;;;1.50;1.40;;;;;;;;;;5014957;28;20056;-80
2023/03/28 14:07:55;;;;;;;2.15;1.55;;;;;;;;;;5010810;28;20097;-78
2023/03/28 14:10:28;;;;;;;2.00;1.50;;;;;;;;;;5012763;28;20036;-86
2023/03/28 14:12:56;;;;;;;1.50;1.40;;;;;;;;;;5012669;28;20042;-79
2023/03/28 14:15:23;;;;;;;2.42;1.58;;;;;;;;;;5010594;28;20034;-80
2023/03/28 14:17:50;;;;;;;1.88;1.45;;;;;;;;;;5008953;28;20041;-88
2023/03/28 14:20:17;;;;;;;3.47;1.90;;;;;;;;;;5019937;28;20037;-89
2023/03/28 14:22:48;;;;;;;5.03;1.70;;;;;;;;;;5028206;28;20320;-89
2023/03/28 14:25:16;;;;;;;3.15;1.77;;;;;;;;;;5028228;23;20061;-84
2023/03/28 14:27:44;;;;;;;3.15;2.00;;;;;;;;;;5010221;28;20371;-82
2023/03/28 14:30:24;;;;;;;4.70;2.53;;;;;;;;;;5010570;28;20037;-83
2023/03/28 14:32:53;;;;;;;2.03;1.50;;;;;;;;;;5016978;28;20092;-81
2023/03/28 14:35:21;;;;;;;4.80;2.10;;;;;;;;;;5014031;28;20080;-81
2023/03/28 14:37:51;;;;;;;2.83;1.80;;;;;;;;;;5012575;28;20057;-85
2023/03/28 14:40:28;;;;;;;3.55;1.70;;;;;;;;;;5013763;28;20038;-79
2023/03/28 14:42:55;;;;;;;2.00;1.63;;;;;;;;;;5010261;28;20077;-83
2023/03/28 14:45:24;;;;;;;2.53;2.00;;;;;;;;;;5011273;28;20018;-85
2023/03/28 14:47:51;;;;;;;1.90;1.80;;;;;;;;;;5017908;28;20022;-91
2023/03/28 14:50:18;;;;;;;2.92;2.05;;;;;;;;;;5011242;28;20033;-84
2023/03/28 14:52:44;;;;;;;4.10;2.10;;;;;;;;;;5015822;28;20026;-82
2023/03/28 14:55:18;;;;;;;4.53;2.00;;;;;;;;;;5013643;28;20054;-80
2023/03/28 14:57:46;;;;;;;4.40;2.00;;;;;;;;;;5014239;28;20034;-89
2023/03/28 15:00:18;;;;;;;2.83;1.80;;;;;;;;;;5015580;28;20030;-83